createdAt,value
2022-08-30T10:15:41.808Z,77.25
2022-08-30T10:16:41.797Z,78.42
2022-08-30T10:17:41.774Z,78.23
2022-08-30T10:18:41.766Z,76.87
2022-08-30T10:19:41.751Z,76.48
2022-08-30T10:20:41.744Z,77.35
2022-08-30T10:21:41.716Z,77.74
2022-08-30T10:22:41.786Z,77.29
2022-08-30T10:23:41.691Z,77.48
2022-08-30T10:24:41.700Z,77.43
2022-08-30T10:25:41.665Z,77.23
2022-08-30T10:26:41.663Z,77.27
2022-08-30T10:27:41.642Z,75.52
2022-08-30T10:28:41.633Z,75.65
2022-08-30T10:30:41.606Z,74.51
2022-08-30T10:31:41.608Z,75.29
2022-08-30T10:32:41.595Z,75.09
2022-08-30T10:33:41.575Z,75.29
2022-08-30T10:34:41.583Z,76.45
2022-08-30T10:35:41.547Z,77.04
2022-08-30T10:36:41.547Z,76.55
2022-08-30T10:37:41.520Z,76.94
2022-08-30T10:38:41.516Z,76.50
2022-08-30T10:39:41.502Z,75.87
2022-08-30T10:40:41.552Z,75.29
2022-08-30T10:41:41.487Z,75.78
2022-08-30T10:42:41.482Z,75.29
2022-08-30T10:43:41.456Z,75.91
2022-08-30T10:44:41.463Z,76.20
2022-08-30T10:45:41.455Z,75.62
2022-08-30T10:46:41.425Z,74.35
2022-08-30T10:47:41.421Z,74.41
2022-08-30T10:48:41.418Z,73.63
2022-08-30T10:49:41.392Z,73.34
2022-08-30T10:50:41.520Z,73.44
2022-08-30T10:51:41.375Z,74.02
2022-08-30T10:52:41.357Z,74.08
2022-08-30T10:53:41.341Z,74.67
2022-08-30T10:54:41.343Z,74.12
2022-08-30T10:55:41.343Z,73.83
2022-08-30T10:56:41.316Z,74.00
2022-08-30T10:57:43.022Z,74.49
2022-08-30T10:58:41.288Z,73.25
2022-08-30T10:59:41.300Z,73.80
2022-08-30T11:00:41.378Z,73.74
2022-08-30T11:01:46.287Z,72.34
2022-08-30T11:02:41.262Z,73.35
2022-08-30T11:03:41.240Z,73.06
2022-08-30T11:04:45.414Z,72.51
2022-08-30T11:05:42.071Z,71.83
2022-08-30T11:06:41.211Z,71.54
2022-08-30T11:07:41.195Z,71.05
2022-08-30T11:08:41.194Z,71.73
2022-08-30T11:09:41.178Z,72.22
2022-08-30T11:10:41.183Z,71.05
2022-08-30T11:11:41.150Z,71.25
2022-08-30T11:12:41.598Z,71.18
2022-08-30T11:13:41.132Z,70.89
2022-08-30T11:14:41.118Z,71.57
2022-08-30T11:15:41.119Z,71.90
2022-08-30T11:16:41.097Z,71.22
2022-08-30T11:17:41.087Z,69.79
2022-08-30T11:18:41.082Z,69.20
2022-08-30T11:19:41.074Z,69.34
2022-08-30T11:20:41.071Z,69.14
2022-08-30T11:21:41.054Z,67.90
2022-08-30T11:22:41.037Z,69.39
2022-08-30T11:23:41.048Z,69.88
2022-08-30T11:24:41.022Z,71.96
2022-08-30T11:25:41.014Z,70.95
2022-08-30T11:26:40.997Z,69.72
2022-08-30T11:27:40.993Z,69.65
2022-08-30T11:28:40.989Z,69.75
2022-08-30T11:29:40.980Z,69.56
2022-08-30T11:30:40.980Z,69.62
2022-08-30T11:31:40.958Z,70.11
2022-08-30T11:32:40.947Z,70.79
2022-08-30T11:33:40.927Z,72.00
2022-08-30T11:34:40.925Z,70.53
2022-08-30T11:35:47.369Z,69.95
2022-08-30T11:36:45.918Z,69.53
2022-08-30T11:37:40.893Z,70.98
2022-08-30T11:38:40.881Z,69.78
2022-08-30T11:39:40.867Z,71.34
2022-08-30T11:40:40.884Z,70.76
2022-08-30T11:43:40.837Z,68.82
2022-08-30T11:44:40.818Z,68.10
2022-08-30T11:45:40.848Z,67.09
2022-08-30T11:46:40.798Z,65.75
2022-08-30T11:47:40.797Z,63.82
2022-08-30T11:48:40.778Z,63.85
2022-08-30T11:49:40.782Z,63.49
2022-08-30T11:50:41.988Z,63.79
2022-08-30T11:51:40.755Z,63.63
2022-08-30T11:52:40.751Z,64.67
2022-08-30T11:53:40.738Z,65.59
2022-08-30T11:54:40.729Z,66.53
2022-08-30T11:55:40.726Z,65.95
2022-08-30T11:56:40.716Z,65.13
2022-08-30T11:57:40.700Z,63.43
2022-08-30T11:58:43.917Z,64.61
2022-08-30T11:59:40.679Z,63.64
2022-08-30T12:00:40.706Z,65.23
2022-08-30T12:01:51.312Z,65.66
2022-08-30T12:02:40.753Z,67.35
2022-08-30T12:03:40.702Z,67.32
2022-08-30T12:04:40.634Z,66.80
2022-08-30T12:05:40.638Z,65.88
2022-08-30T12:06:40.607Z,64.58
2022-08-30T12:07:40.606Z,63.04
2022-08-30T12:08:40.584Z,61.89
2022-08-30T12:09:40.578Z,61.33
2022-08-30T12:10:40.593Z,62.77
2022-08-30T12:11:40.563Z,61.52
2022-08-30T12:12:40.548Z,61.82
2022-08-30T12:13:40.547Z,62.81
2022-08-30T12:14:40.936Z,63.13
2022-08-30T12:15:40.527Z,62.18
2022-08-30T12:16:40.714Z,62.81
2022-08-30T12:17:40.500Z,62.65
2022-08-30T12:18:40.732Z,63.53
2022-08-30T12:19:41.401Z,63.92
2022-08-30T12:20:40.502Z,64.51
2022-08-30T12:21:44.798Z,65.00
2022-08-30T12:22:40.459Z,64.64
2022-08-30T12:23:44.275Z,64.81
2022-08-30T12:24:40.451Z,65.00
2022-08-30T12:25:40.454Z,65.95
2022-08-30T12:26:41.271Z,67.61
2022-08-30T12:27:40.410Z,68.10
2022-08-30T12:28:42.065Z,68.26
2022-08-30T12:29:40.401Z,71.22
2022-08-30T12:30:40.442Z,69.07
2022-08-30T12:31:40.412Z,67.22
2022-08-30T12:32:40.377Z,68.10
2022-08-30T12:33:41.444Z,68.97
2022-08-30T12:34:40.357Z,68.59
2022-08-30T12:35:40.369Z,68.16
2022-08-30T12:36:40.341Z,69.88
2022-08-30T12:37:42.237Z,70.66
2022-08-30T12:38:40.324Z,70.47
2022-08-30T12:39:40.298Z,69.85
2022-08-30T12:40:40.383Z,68.07
2022-08-30T12:41:43.710Z,68.39
2022-08-30T12:42:40.271Z,67.02
2022-08-30T12:43:41.419Z,67.22
2022-08-30T12:44:40.255Z,66.89
2022-08-30T12:45:40.287Z,68.00
2022-08-30T12:46:40.244Z,66.66
2022-08-30T12:47:40.231Z,65.85
2022-08-30T12:48:40.224Z,65.72
2022-08-30T12:49:40.207Z,64.38
2022-08-30T12:50:40.219Z,64.61
2022-08-30T12:51:41.101Z,63.43
2022-08-30T12:52:40.187Z,63.66
2022-08-30T12:53:40.176Z,63.98
2022-08-30T12:54:40.161Z,62.98
2022-08-30T12:55:40.198Z,62.98
2022-08-30T12:56:49.555Z,63.89
2022-08-30T12:57:40.137Z,63.98
2022-08-30T12:58:40.125Z,63.20
2022-08-30T12:59:40.122Z,62.98
2022-08-30T13:00:40.218Z,64.54
2022-08-30T13:01:40.706Z,65.36
2022-08-30T13:02:40.093Z,65.72
2022-08-30T13:03:40.080Z,66.93
2022-08-30T13:04:40.091Z,67.80
2022-08-30T13:05:44.572Z,68.39
2022-08-30T13:06:40.065Z,67.48
2022-08-30T13:07:40.050Z,65.42
2022-08-30T13:08:40.047Z,64.51
2022-08-30T13:09:40.026Z,64.61
2022-08-30T13:10:40.022Z,62.12
2022-08-30T13:11:40.016Z,62.57
2022-08-30T13:12:40.008Z,61.76
2022-08-30T13:13:39.996Z,62.54
2022-08-30T13:14:42.467Z,62.08
2022-08-30T13:15:39.973Z,62.87
2022-08-30T13:16:45.063Z,62.08
2022-08-30T13:17:39.975Z,59.86
2022-08-30T13:18:39.960Z,59.47
2022-08-30T13:19:39.949Z,60.15
2022-08-30T13:20:39.934Z,61.10
2022-08-30T13:21:39.933Z,60.15
2022-08-30T13:22:39.939Z,59.75
2022-08-30T13:23:39.911Z,59.45
2022-08-30T13:24:39.920Z,59.39
2022-08-30T13:25:39.902Z,61.10
2022-08-30T13:26:40.032Z,61.73
2022-08-30T13:27:39.968Z,61.74
2022-08-30T13:28:39.879Z,63.18
2022-08-30T13:29:39.871Z,63.46
2022-08-30T13:30:39.863Z,64.90
2022-08-30T13:31:39.919Z,62.61
2022-08-30T13:32:39.862Z,62.98
2022-08-30T13:33:39.837Z,63.47
2022-08-30T13:34:39.842Z,63.99
2022-08-30T13:35:39.834Z,65.20
2022-08-30T13:36:39.833Z,64.65
2022-08-30T13:37:50.355Z,65.49
2022-08-30T13:38:39.823Z,66.93
2022-08-30T13:39:39.795Z,69.30
2022-08-30T13:40:39.832Z,69.14
2022-08-30T13:41:39.787Z,66.20
2022-08-30T13:42:39.785Z,64.64
2022-08-30T13:44:39.761Z,63.29
2022-08-30T13:45:41.642Z,61.30
2022-08-30T13:46:39.895Z,61.69
2022-08-30T13:47:39.805Z,62.28
2022-08-30T13:48:39.755Z,62.54
2022-08-30T13:49:43.459Z,63.39
2022-08-30T13:50:39.730Z,62.05
2022-08-30T13:51:39.719Z,61.85
2022-08-30T13:52:39.713Z,61.26
2022-08-30T13:53:55.411Z,61.16
2022-08-30T13:54:39.687Z,61.88
2022-08-30T13:55:39.681Z,60.66
2022-08-30T13:56:39.681Z,59.94
2022-08-30T13:57:55.959Z,58.98
2022-08-30T13:58:39.686Z,58.98
2022-08-30T13:59:39.665Z,59.22
2022-08-30T14:00:39.734Z,58.33
2022-08-30T14:02:46.350Z,58.40
2022-08-30T14:04:13.252Z,58.50
2022-08-30T14:04:39.681Z,59.13
2022-08-30T14:05:49.449Z,60.53
2022-08-30T14:07:11.926Z,59.51
2022-08-30T14:07:39.621Z,58.46
2022-08-30T14:08:48.136Z,57.87
2022-08-30T14:09:39.610Z,57.54
2022-08-30T14:10:47.006Z,58.48
2022-08-30T14:11:39.597Z,58.00
2022-08-30T14:13:00.622Z,58.89
2022-08-30T14:14:14.631Z,58.94
2022-08-30T14:14:43.009Z,59.20
2022-08-30T14:15:39.576Z,58.87
2022-08-30T14:16:39.603Z,60.50
2022-08-30T14:17:39.576Z,59.23
2022-08-30T14:18:39.581Z,58.25
2022-08-30T14:19:39.557Z,58.81
2022-08-30T14:20:39.722Z,58.54
2022-08-30T14:21:39.557Z,58.81
2022-08-30T14:22:39.541Z,59.34
2022-08-30T14:23:39.563Z,60.10
2022-08-30T14:24:39.536Z,59.83
2022-08-30T14:25:40.798Z,60.25
2022-08-30T14:26:39.649Z,60.03
2022-08-30T14:27:39.526Z,60.81
2022-08-30T14:28:39.532Z,62.12
2022-08-30T14:29:39.520Z,60.31
2022-08-30T14:30:39.516Z,59.68
2022-08-30T14:31:39.590Z,60.53
2022-08-30T14:32:39.507Z,59.69
2022-08-30T14:33:39.516Z,61.18
2022-08-30T14:34:39.490Z,62.91
2022-08-30T14:35:39.486Z,61.63
2022-08-30T14:36:39.508Z,62.88
2022-08-30T14:37:39.491Z,62.56
2022-08-30T14:38:39.494Z,63.73
2022-08-30T14:39:39.490Z,63.60
2022-08-30T14:40:39.513Z,65.17
2022-08-30T14:41:43.170Z,65.23
2022-08-30T14:42:39.448Z,65.52
2022-08-30T14:43:39.464Z,63.65
2022-08-30T14:44:55.124Z,62.37
2022-08-30T14:45:39.438Z,60.17
2022-08-30T14:46:39.505Z,58.65
2022-08-30T14:47:39.430Z,59.95
2022-08-30T14:48:39.427Z,59.61
2022-08-30T14:49:39.414Z,60.89
2022-08-30T14:50:39.456Z,61.38
2022-08-30T14:51:39.430Z,62.72
2022-08-30T14:52:39.395Z,62.09
2022-08-30T14:53:39.404Z,62.05
2022-08-30T14:54:39.394Z,62.45
2022-08-30T14:55:39.384Z,61.47
2022-08-30T14:56:39.383Z,60.95
2022-08-30T14:57:39.371Z,61.90
2022-08-30T14:58:39.382Z,62.45
2022-08-30T14:59:39.368Z,62.68
2022-08-30T15:00:39.417Z,62.91
2022-08-30T15:01:39.344Z,62.88
2022-08-30T15:02:39.347Z,63.11
2022-08-30T15:03:39.423Z,62.92
2022-08-30T15:04:39.337Z,63.04
2022-08-30T15:05:39.332Z,62.91
2022-08-30T15:06:39.329Z,62.32
2022-08-30T15:07:39.324Z,63.99
2022-08-30T15:08:39.482Z,63.18
2022-08-30T15:09:39.304Z,63.57
2022-08-30T15:10:39.296Z,63.96
2022-08-30T15:11:39.302Z,63.76
2022-08-30T15:12:39.299Z,63.92
2022-08-30T15:13:39.305Z,63.50
2022-08-30T15:14:39.277Z,64.02
2022-08-30T15:15:39.268Z,63.10
2022-08-30T15:16:39.320Z,61.76
2022-08-30T15:17:39.275Z,61.92
2022-08-30T15:18:39.267Z,61.58
2022-08-30T15:19:39.264Z,61.20
2022-08-30T15:20:39.258Z,62.05
2022-08-30T15:21:39.250Z,63.01
2022-08-30T15:22:39.239Z,62.95
2022-08-30T15:23:39.449Z,63.40
2022-08-30T15:24:39.238Z,64.67
2022-08-30T15:25:39.545Z,65.62
2022-08-30T15:26:39.228Z,65.59
2022-08-30T15:27:39.225Z,64.22
2022-08-30T15:28:39.220Z,64.35
2022-08-30T15:29:39.199Z,64.64
2022-08-30T15:30:39.197Z,64.25
2022-08-30T15:31:39.239Z,63.73
2022-08-30T15:32:39.192Z,63.34
2022-08-30T15:33:39.202Z,64.71
2022-08-30T15:34:39.168Z,64.61
2022-08-30T15:36:01.632Z,64.48
2022-08-30T15:37:01.610Z,64.84
2022-08-30T15:40:54.411Z,66.76
2022-08-30T15:41:57.322Z,67.25
2022-08-30T15:42:54.381Z,67.22
2022-08-30T15:44:20.076Z,66.83
2022-08-30T15:45:20.050Z,67.74
2022-08-30T15:46:20.075Z,68.00
2022-08-30T15:47:20.029Z,67.25
2022-08-30T15:48:20.024Z,67.41
2022-08-30T15:49:20.020Z,67.15
2022-08-30T15:50:20.027Z,66.53
2022-08-30T15:51:20.000Z,67.02
2022-08-30T15:52:19.995Z,67.90
2022-08-30T15:53:19.988Z,68.19
2022-08-30T15:54:19.987Z,67.32
2022-08-30T15:55:19.984Z,67.35
2022-08-30T15:56:19.961Z,66.31
2022-08-30T15:57:19.952Z,66.47
2022-08-30T15:58:19.957Z,66.60
2022-08-30T15:59:19.930Z,64.09
2022-08-30T16:00:19.941Z,64.84
2022-08-30T16:01:19.980Z,64.73
2022-08-30T16:02:19.965Z,63.92
2022-08-30T16:03:19.993Z,63.79
2022-08-30T16:04:19.905Z,65.59
2022-08-30T16:05:19.891Z,64.84
2022-08-30T16:06:19.899Z,65.43
2022-08-30T16:07:19.886Z,66.70
2022-08-30T16:10:13.925Z,66.60
2022-08-30T16:11:13.926Z,67.71
2022-08-30T16:12:22.355Z,67.90
2022-08-30T16:13:13.940Z,68.10
2022-08-30T16:14:13.883Z,68.19
2022-08-30T16:15:13.884Z,68.10
2022-08-30T16:16:13.894Z,67.32
2022-08-30T16:17:13.870Z,69.10
2022-08-30T16:18:13.860Z,68.81
2022-08-30T16:19:13.879Z,67.93
2022-08-30T16:20:13.846Z,67.93
2022-08-30T16:21:13.836Z,69.59
2022-08-30T16:22:13.830Z,68.32
2022-08-30T16:23:13.822Z,69.53
2022-08-30T16:24:14.252Z,67.35
2022-08-30T16:25:13.813Z,67.58
2022-08-30T16:26:17.299Z,67.71
2022-08-30T16:27:13.784Z,66.08
2022-08-30T16:28:13.776Z,66.05
2022-08-30T16:29:13.793Z,65.10
2022-08-30T16:30:13.790Z,66.21
2022-08-30T16:31:13.782Z,66.66
2022-08-30T16:32:13.754Z,67.19
2022-08-30T16:33:13.740Z,67.48
2022-08-30T16:34:13.733Z,67.83
2022-08-30T16:35:13.751Z,69.46
2022-08-30T16:36:13.731Z,69.36
2022-08-30T16:37:13.712Z,70.01
2022-08-30T16:38:13.712Z,69.33
2022-08-30T16:39:13.706Z,70.60
2022-08-30T16:40:13.761Z,71.05
2022-08-30T16:41:16.553Z,71.15
